الصفحة الرئيسية
METAR-TAF:

METAR-TAF

مطار :

فلاديفوستوك, روسيا

دائرة عرض: 43-07N, خط طول: 131-56E, ارتفاع: 184 متر

مراقبة الطقس الحالي

تاريخ ووقت الإصدار 42 دقيقة قبل الساعة 03:30UTC
ريح 10 عقدة من الشمال/الشمال الغربي, الاتجاه يتراوح بين الغرب/الشمال الغربي و الشمال
درجة الحرارة 7°درجة مئوية
الرطوبة 21%
ضغط 1019 hPa
الرؤية 10 كم أو أكثر

METAR: UHWW 220330Z 33005MPS 290V360 9999 NSC 07/M14 Q1019 R25L/0///70 NOSIG RMK QFE763

زمن: 14:12 (04:12 UTC)

توقعات

تاريخ ووقت الإصدار 2ساعات و 12 دقيقة قبل الساعة 02:00UTC
التوقعات صالحة من22 الساعة 03 UTC إلى 23 الساعة 03 UTC
ريح 6 عقدة من الشمال
الرؤية 10 كم أو أكثر
مؤقت
من 22 الساعة 03 UTC إلى 22 الساعة 09 UTC
ريح 12 عقدة من الشمال/الشمال الغربي تتزايد حتى 21 عقدة
أصبح
من 22 الساعة 09 UTC إلى 22 الساعة 11 UTC
الرؤية: 3500 متر
العجاج

TAF: UHWW 220200Z 2203/2303 35003MPS 9999 NSC TEMPO 2203/2209 34006G11MPS BECMG 2209/2211 3500 HZ

أرصاد الطقس والتوقعات من أكثر من 4000 مطار (تقارير الطقس للمطار METAR والتنبؤ بالطقس بالمطارTAF).

المحطات المتاحة هي النقط الصفراء والحمراء على الخريطة.

حرك المؤشر فوق النقطة لمعرفة اسم المحطة.

ثم انقر لمعرفة أرصاد وتوقعات الطقس.

لتغيير الخارطة: اضغط على الأزرار الخضراء مع رمز الصليب الأسود للتكبير. على الزر الأخضر مع شرطة للتصغير، أو على الأسهم الخضراء للخرائط المجاورة.


METAR-TAF: